Time,TemperatureF,DewpointF,PressureIn,WindDirection,WindDirectionDegrees,WindSpeedMPH,WindSpeedGustMPH,Humidity,HourlyPrecipIn,Conditions,Clouds,dailyrainin,SolarRadiationWatts/m^2,SoftwareType,DateUTC
2013-10-07 00:04:00,47.0,47.0,-100.00,ENE,70,1.0,3.0,100,0.02,,,0.18,0.000000,,2013-10-07 04:04:00,
2013-10-07 00:44:00,47.0,47.0,-100.00,ENE,63,2.0,3.0,100,0.01,,,0.19,0.000000,,2013-10-07 04:44:00,
2013-10-07 00:53:00,47.0,47.0,-100.00,ENE,63,2.0,3.0,100,0.01,,,0.19,0.000000,,2013-10-07 04:53:00,
2013-10-07 01:03:00,47.0,47.0,-100.00,ENE,63,2.0,3.0,100,0.01,,,0.19,0.000000,,2013-10-07 05:03:00,
2013-10-07 01:43:00,47.0,47.0,-100.00,ENE,73,2.0,3.0,100,0.01,,,0.20,0.000000,,2013-10-07 05:43:00,
2013-10-07 01:52:00,47.0,47.0,-100.00,ENE,73,2.0,3.0,100,0.01,,,0.20,0.000000,,2013-10-07 05:52:00,
2013-10-07 02:03:00,47.0,47.0,-100.00,ENE,73,2.0,3.0,100,0.01,,,0.20,0.000000,,2013-10-07 06:03:00,
2013-10-07 02:42:00,47.0,47.0,-100.00,NE,41,1.0,2.0,100,0.02,,,0.22,0.000000,,2013-10-07 06:42:00,
2013-10-07 02:53:00,47.0,47.0,-100.00,NE,41,1.0,2.0,100,0.02,,,0.22,0.000000,,2013-10-07 06:53:00,
2013-10-07 03:01:00,47.0,47.0,-100.00,NE,41,1.0,2.0,100,0.02,,,0.22,0.000000,,2013-10-07 07:01:00,
2013-10-07 03:42:00,48.0,48.0,-100.00,NE,46,2.0,4.0,100,0.01,,,0.23,0.000000,,2013-10-07 07:42:00,
2013-10-07 03:52:00,48.0,48.0,-100.00,NE,46,2.0,4.0,100,0.01,,,0.23,0.000000,,2013-10-07 07:52:00,
2013-10-07 04:03:00,48.0,48.0,-100.00,NE,46,2.0,4.0,100,0.01,,,0.23,0.000000,,2013-10-07 08:03:00,
2013-10-07 04:42:00,48.0,48.0,-100.00,NE,50,1.0,3.0,100,0.01,,,0.24,0.000000,,2013-10-07 08:42:00,
2013-10-07 04:52:00,48.0,48.0,-100.00,NE,50,1.0,3.0,100,0.01,,,0.24,0.000000,,2013-10-07 08:52:00,
2013-10-07 05:02:00,48.0,48.0,-100.00,NE,50,1.0,3.0,100,0.01,,,0.24,0.000000,,2013-10-07 09:02:00,
2013-10-07 05:43:00,48.0,48.0,-100.00,East,79,1.0,2.0,100,0.05,,,0.29,0.000000,,2013-10-07 09:43:00,
2013-10-07 05:54:00,48.0,48.0,-100.00,East,79,1.0,2.0,100,0.05,,,0.29,0.000000,,2013-10-07 09:54:00,
2013-10-07 06:03:00,48.0,48.0,-100.00,East,79,1.0,2.0,100,0.05,,,0.29,0.000000,,2013-10-07 10:03:00,
2013-10-07 06:43:00,48.0,48.0,-100.00,West,270,0.0,0.0,100,0.04,,,0.33,0.000000,,2013-10-07 10:43:00,
2013-10-07 06:53:00,48.0,48.0,-100.00,West,270,0.0,0.0,100,0.04,,,0.33,0.000000,,2013-10-07 10:53:00,
2013-10-07 07:03:00,48.0,48.0,-100.00,West,270,0.0,0.0,100,0.04,,,0.33,0.000000,,2013-10-07 11:03:00,
2013-10-07 07:42:00,48.0,48.0,-100.00,WSW,244,1.0,2.0,100,0.00,,,0.33,0.000000,,2013-10-07 11:42:00,
2013-10-07 07:52:00,48.0,48.0,-100.00,WSW,244,1.0,2.0,100,0.00,,,0.33,0.000000,,2013-10-07 11:52:00,
2013-10-07 08:02:00,48.0,48.0,-100.00,WSW,244,1.0,2.0,100,0.00,,,0.33,0.000000,,2013-10-07 12:02:00,
2013-10-07 08:43:00,49.0,49.0,-100.00,SSW,196,0.0,2.0,100,0.01,,,0.34,6.000000,,2013-10-07 12:43:00,
2013-10-07 08:52:00,49.0,49.0,-100.00,SSW,196,0.0,2.0,100,0.01,,,0.34,6.000000,,2013-10-07 12:52:00,
2013-10-07 09:02:00,49.0,49.0,-100.00,SSW,196,0.0,2.0,100,0.01,,,0.34,6.000000,,2013-10-07 13:02:00,
2013-10-07 09:42:00,49.0,49.0,-100.00,NE,47,1.0,3.0,100,0.00,,,0.34,23.000000,,2013-10-07 13:42:00,
2013-10-07 09:52:00,49.0,49.0,-100.00,NE,47,1.0,3.0,100,0.00,,,0.34,23.000000,,2013-10-07 13:52:00,
2013-10-07 10:02:00,49.0,49.0,-100.00,NE,47,1.0,3.0,100,0.00,,,0.34,23.000000,,2013-10-07 14:02:00,
2013-10-07 10:43:00,50.0,50.0,-100.00,ENE,66,1.0,2.0,100,0.01,,,0.35,31.000000,,2013-10-07 14:43:00,
2013-10-07 10:52:00,50.0,50.0,-100.00,ENE,66,1.0,2.0,100,0.01,,,0.35,31.000000,,2013-10-07 14:52:00,
2013-10-07 11:01:00,50.0,50.0,-100.00,ENE,66,1.0,2.0,100,0.01,,,0.35,31.000000,,2013-10-07 15:01:00,
2013-10-07 11:43:00,51.0,51.0,-100.00,North,3,1.0,3.0,99,0.00,,,0.35,57.000000,,2013-10-07 15:43:00,
2013-10-07 11:54:00,51.0,51.0,-100.00,North,3,1.0,3.0,99,0.00,,,0.35,57.000000,,2013-10-07 15:54:00,
2013-10-07 12:03:00,51.0,51.0,-100.00,North,3,1.0,3.0,99,0.00,,,0.35,57.000000,,2013-10-07 16:03:00,
2013-10-07 12:43:00,52.0,52.0,-100.00,SSE,168,1.0,3.0,99,0.08,,,0.43,45.000000,,2013-10-07 16:43:00,
2013-10-07 12:53:00,52.0,52.0,-100.00,SSE,168,1.0,3.0,99,0.08,,,0.43,45.000000,,2013-10-07 16:53:00,
2013-10-07 13:03:00,52.0,52.0,-100.00,SSE,168,1.0,3.0,99,0.08,,,0.43,45.000000,,2013-10-07 17:03:00,
2013-10-07 13:42:00,53.0,53.0,-100.00,ENE,69,1.0,3.0,99,0.07,,,0.50,53.000000,,2013-10-07 17:42:00,
2013-10-07 13:53:00,53.0,53.0,-100.00,ENE,69,1.0,3.0,99,0.07,,,0.50,53.000000,,2013-10-07 17:53:00,
2013-10-07 14:02:00,53.0,53.0,-100.00,ENE,69,1.0,3.0,99,0.07,,,0.50,53.000000,,2013-10-07 18:02:00,
2013-10-07 14:42:00,53.0,53.0,-100.00,NNW,345,0.0,2.0,99,0.00,,,0.50,45.000000,,2013-10-07 18:42:00,
2013-10-07 14:52:00,53.0,53.0,-100.00,NNW,345,0.0,2.0,99,0.00,,,0.50,45.000000,,2013-10-07 18:52:00,
2013-10-07 15:02:00,53.0,53.0,-100.00,NNW,345,0.0,2.0,99,0.00,,,0.50,45.000000,,2013-10-07 19:02:00,
2013-10-07 15:42:00,53.0,53.0,-100.00,SSE,158,1.0,3.0,99,0.02,,,0.52,32.000000,,2013-10-07 19:42:00,
2013-10-07 15:53:00,53.0,53.0,-100.00,SSE,158,1.0,3.0,99,0.02,,,0.52,32.000000,,2013-10-07 19:53:00,
2013-10-07 16:02:00,53.0,53.0,-100.00,SSE,158,1.0,3.0,99,0.02,,,0.52,32.000000,,2013-10-07 20:02:00,
2013-10-07 16:43:00,54.0,54.0,-100.00,SSW,202,1.0,2.0,100,0.00,,,0.52,27.000000,,2013-10-07 20:43:00,
2013-10-07 16:52:00,54.0,54.0,-100.00,SSW,202,1.0,2.0,100,0.00,,,0.52,27.000000,,2013-10-07 20:52:00,
2013-10-07 17:02:00,54.0,54.0,-100.00,SSW,202,1.0,2.0,100,0.00,,,0.52,27.000000,,2013-10-07 21:02:00,
2013-10-07 17:43:00,54.0,54.0,-100.00,East,91,1.0,3.0,100,0.00,,,0.52,15.000000,,2013-10-07 21:43:00,
2013-10-07 17:55:00,54.0,54.0,-100.00,East,91,1.0,3.0,100,0.00,,,0.52,15.000000,,2013-10-07 21:55:00,
2013-10-07 18:04:00,54.0,54.0,-100.00,East,91,1.0,3.0,100,0.00,,,0.52,15.000000,,2013-10-07 22:04:00,
2013-10-07 18:43:00,54.0,54.0,-100.00,NE,45,2.0,4.0,100,0.01,,,0.42,8.000000,,2013-10-07 22:43:00,
2013-10-07 19:42:00,63.0,63.0,-100.00,SW,232,4.0,25.0,100,-99.99,,,0.87,0.000000,,2013-10-07 23:42:00,
2013-10-07 19:52:00,63.0,63.0,-100.00,SW,232,4.0,25.0,100,-99.99,,,0.87,0.000000,,2013-10-07 23:52:00,
2013-10-07 20:03:00,63.0,63.0,-100.00,SW,232,4.0,25.0,100,-99.99,,,0.87,0.000000,,2013-10-08 00:03:00,
2013-10-07 20:42:00,63.0,63.0,-100.00,WSW,237,5.0,8.0,100,0.12,,,0.96,0.000000,,2013-10-08 00:42:00,
2013-10-07 20:52:00,63.0,63.0,-100.00,WSW,237,5.0,8.0,100,0.12,,,0.96,0.000000,,2013-10-08 00:52:00,
2013-10-07 21:02:00,63.0,63.0,-100.00,WSW,237,5.0,8.0,100,0.12,,,0.96,0.000000,,2013-10-08 01:02:00,
2013-10-07 21:42:00,63.0,61.0,-100.00,WSW,237,8.0,14.0,94,0.02,,,0.98,0.000000,,2013-10-08 01:42:00,
2013-10-07 21:52:00,63.0,61.0,-100.00,WSW,237,8.0,14.0,94,0.02,,,0.98,0.000000,,2013-10-08 01:52:00,
2013-10-07 22:03:00,63.0,61.0,-100.00,WSW,237,8.0,14.0,94,0.02,,,0.98,0.000000,,2013-10-08 02:03:00,
2013-10-07 22:42:00,60.0,59.0,-100.00,SW,228,4.0,15.0,96,0.00,,,0.97,0.000000,,2013-10-08 02:42:00,
2013-10-07 22:52:00,60.0,59.0,-100.00,SW,228,4.0,15.0,96,0.00,,,0.97,0.000000,,2013-10-08 02:52:00,
2013-10-07 23:02:00,60.0,59.0,-100.00,SW,228,4.0,15.0,96,0.00,,,0.97,0.000000,,2013-10-08 03:02:00,
2013-10-07 23:44:00,59.0,55.0,-100.00,SW,231,4.0,11.0,87,0.00,,,0.95,0.000000,,2013-10-08 03:44:00,
2013-10-07 23:55:00,59.0,55.0,-100.00,SW,231,4.0,11.0,87,0.00,,,0.95,0.000000,,2013-10-08 03:55:00,